Flight Track Log - Related Links

Times and Time Zones

All times are in EDT time to prevent confusion due to time zone crossing. See the USC105 flight status page for this flight to view local times or setup timezone preferences in your user account.

Time Position Orientation Groundspeed Altitude Reporting Facility
EDT Latitude Longitude Course Direction KTS MPH feet Rate Location/Type
Tue 06:06:02 AM 41.8833 -88.2500 153° Southeast 98 113 1,700  Level Chicago TRACON
Tue 06:07:08 AM 41.8500 -88.2167 143° Southeast 126 145 2,600 773 Climbing Chicago TRACON
Tue 06:08:14 AM 41.8353 -88.1831 120° Southeast 127 146 3,400 857 Climbing Chicago Center
Tue 06:09:14 AM 41.8142 -88.1392 123° Southeast 136 157 4,400 992 Climbing Chicago Center
Tue 06:10:15 AM 41.8097 -88.0836 96° East 155 178 5,400 942 Climbing Chicago Center
Tue 06:11:00 AM 41.9392 -87.8902 153° Southeast  Level Estimated
Tue 06:11:15 AM 41.8172 -88.0242 80° East 160 184 6,300  Level Chicago Center
Tue 06:12:15 AM 41.8247 -87.9653 80° East 162 186 7,000 347 Climbing Chicago Center
Tue 06:13:16 AM 41.8328 -87.8950 81° East 180 207 7,000  Level Chicago Center
Tue 06:14:16 AM 41.8403 -87.8222 82° East 194 223 7,000  Level Chicago Center
Tue 06:15:03 AM 41.8500 -87.7500 80° East 209 241 7,000  Level Chicago TRACON
Tue 06:15:57 AM 41.8500 -87.6833 90° East 218 251 7,000  Level Chicago TRACON
Tue 06:17:03 AM 41.8667 -87.5833 77° East 215 247 7,000  Level Chicago TRACON
Tue 06:17:18 AM 41.8686 -87.5708 78° East 218 251 7,000  Level Chicago Center
Tue 06:18:18 AM 41.8775 -87.4914 81° East 216 249 7,000  Level Chicago Center
Tue 06:19:03 AM 41.8833 -87.4333 82° East 216 249 7,000  Level Chicago TRACON
Tue 06:20:19 AM 41.8947 -87.3336 81° East 213 245 7,000  Level Chicago Center
Tue 06:21:19 AM 41.9031 -87.2544 82° East 215 247 7,000 -50 Level Chicago Center
Tue 06:22:20 AM 41.9108 -87.1742 83° East 216 249 6,900 -50 Descending Chicago Center
Tue 06:23:20 AM 41.9194 -87.0969 81° East 211 243 6,900 50 Level Chicago Center
Tue 06:24:21 AM 41.9286 -87.0178 81° East 215 247 7,000 50 Climbing Chicago Center
Tue 06:25:21 AM 41.9364 -86.9400 82° East 212 244 7,000  Level Chicago Center
Tue 06:26:22 AM 41.9439 -86.8611 83° East 213 245 7,000  Level Chicago Center
Tue 06:27:22 AM 41.9525 -86.7814 82° East 216 249 7,000  Level Chicago Center
Tue 06:28:23 AM 41.9603 -86.7019 82° East 216 249 7,000  Level Chicago Center
Tue 06:29:23 AM 41.9692 -86.6147 82° East 215 247 7,000 -347 Level Chicago Center
Tue 06:30:24 AM 41.9767 -86.5306 83° East 226 260 6,300 -595 Descending Chicago Center
Tue 06:31:24 AM 41.9886 -86.4422 80° East 239 275 5,800 -694 Descending Chicago Center
Tue 06:32:25 AM 41.9947 -86.3631 84° East 218 251 4,900 -393 Descending Chicago Center
Tue 06:33:26 AM 42.0025 -86.2867 82° East 209 241 5,000 50 Climbing Chicago Center
Tue 06:34:26 AM 42.0106 -86.2081 82° East 211 243 5,000  Level Chicago Center
Tue 06:35:27 AM 42.0186 -86.1292 82° East 213 245 5,000 -50 Level Chicago Center
Tue 06:36:27 AM 42.0264 -86.0517 82° East 209 241 4,900  Descending Chicago Center
Tue 06:37:28 AM 42.0328 -85.9739 84° East 210 242 5,000 50 Climbing Chicago Center
Tue 06:38:28 AM 42.0403 -85.8969 82° East 209 241 5,000  Level Chicago Center
Tue 06:39:29 AM 42.0478 -85.8192 83° East 208 239 5,000  Level Chicago Center
Tue 06:40:29 AM 42.0547 -85.7425 83° East 208 239 5,000  Level Chicago Center
Tue 06:41:30 AM 42.0622 -85.6667 82° East 206 237 5,000  Level Chicago Center
Tue 06:42:30 AM 42.0697 -85.5908 82° East 205 236 5,000 -50 Level Chicago Center
Tue 06:43:31 AM 42.0764 -85.5167 83° East 202 232 4,900  Descending Chicago Center
Tue 06:44:32 AM 42.0831 -85.4406 83° East 203 234 5,000 50 Climbing Chicago Center
Tue 06:45:32 AM 42.0897 -85.3653 83° East 203 234 5,000  Level Chicago Center
Tue 06:46:33 AM 42.0967 -85.2892 83° East 203 234 5,000  Level Chicago Center
Tue 06:47:33 AM 42.1033 -85.2122 83° East 206 237 5,000 -50 Level Chicago Center
Tue 06:48:34 AM 42.1100 -85.1347 83° East 207 238 4,900  Descending Chicago Center
Tue 06:49:34 AM 42.1172 -85.0581 83° East 207 238 5,000  Climbing Chicago Center
Tue 06:50:35 AM 42.1236 -84.9817 84° East 205 236 4,900  Descending Chicago Center
Tue 06:51:35 AM 42.1303 -84.9064 83° East 204 235 5,000 50 Climbing Chicago Center
Tue 06:52:36 AM 42.1364 -84.8325 84° East 200 230 5,000 -50 Level Chicago Center
Tue 06:53:36 AM 42.1428 -84.7586 83° East 199 229 4,900 -50 Descending Chicago Center
Tue 06:54:37 AM 42.1489 -84.6836 84° East 201 231 4,900  Level Chicago Center
Tue 06:55:37 AM 42.1556 -84.6103 83° East 198 228 4,900  Level Chicago Center
Tue 06:56:38 AM 42.1628 -84.5208 84° East 199 229 4,900  Level Chicago Center
Tue 06:57:38 AM 42.1675 -84.4578 84° East 200 230 4,900 62 Level Chicago Center
Tue 06:58:15 AM 42.1694 -84.4019 87° East 199 229 5,000 109 Climbing Cleveland Center
Tue 06:58:33 AM 42.1722 -84.3825 79° East 200 230 5,000  Level Cleveland Center
Tue 06:59:34 AM 42.1789 -84.3072 83° East 201 231 5,000  Level Cleveland Center
Tue 07:00:41 AM 42.1878 -84.2236 82° East 203 234 5,000  Level Cleveland Center
Tue 07:01:42 AM 42.2108 -84.1522 66° East 203 234 5,000  Level Cleveland Center
Tue 07:02:49 AM 42.2322 -84.0719 70° East 201 231 5,000  Level Cleveland Center
Tue 07:03:50 AM 42.2508 -84.0028 70° East 202 232 5,000  Level Cleveland Center
Tue 07:04:51 AM 42.2697 -83.9308 70° East 200 230 5,000  Level Cleveland Center
Tue 07:05:58 AM 42.2950 -83.8481 68° East 198 228 5,000  Level Cleveland Center
Tue 07:06:47 AM 42.3089 -83.7953 70° East 194 223 5,000 -828 Level Cleveland Center
Tue 07:07:54 AM 42.3342 -83.7153 67° East 228 262 3,400 -1,125 Descending Cleveland Center
Tue 07:08:55 AM 42.3611 -83.6378 65° Northeast 212 244 2,600 -492 Descending Cleveland Center
Tue 07:09:56 AM 42.3544 -83.5842 100° East 148 170 2,400 -98 Descending Cleveland Center
Tue 07:10:57 AM 42.3219 -83.5517 144° Southeast 142 163 2,400 -197 Level Cleveland Center
Tue 07:11:58 AM 42.2933 -83.5194 140° Southeast 135 155 2,000 -443 Descending Cleveland Center
Tue 07:12:59 AM 42.2647 -83.5069 162° South 96 110 1,500 -492 Descending Cleveland Center

Login

Don't have an account? Register now (free) for customized features, flight alerts, and more!